Time;durP1;ratioP1;P1;durP2;ratioP2;P2;SDS_P1;SDS_P2;PMS_P1;PMS_P2;Temp;Humidity;BMP_temperature;BMP_pressure;BME280_temperature;BME280_humidity;BME280_pressure;Samples;Min_cycle;Max_cycle;Signal;HPM_P1;HPM_P2
2021/10/28 00:12:12;;;;;;;;;;;18.80;61.70;;;;;;5042135;28;19924;-60
2021/10/28 00:14:26;;;;;;;;;;;18.80;61.60;;;;;;5050824;28;19959;-54
2021/10/28 00:16:54;;;;;;;;;;;18.80;61.60;;;;;;5053972;28;19968;-57
2021/10/28 00:19:19;;;;;;;;;;;18.80;61.60;;;;;;5049633;28;19913;-53
2021/10/28 00:21:45;;;;;;;;;;;18.80;61.60;;;;;;5051376;28;20520;-55
2021/10/28 00:24:11;;;;;;;;;;;18.80;61.50;;;;;;5053931;28;19912;-55
2021/10/28 00:26:37;;;;;;;;;;;18.80;61.50;;;;;;5063248;28;20027;-58
2021/10/28 00:29:04;;;;;;;;;;;18.70;61.40;;;;;;5052078;28;20008;-56
2021/10/28 00:31:31;;;;;;;;;;;18.80;61.50;;;;;;5048251;28;20379;-49
2021/10/28 00:33:56;;;;;;;;;;;18.70;61.40;;;;;;5044556;28;19913;-51
2021/10/28 00:36:22;;;;;;;;;;;18.80;61.40;;;;;;5051047;28;19926;-53
2021/10/28 00:38:48;;;;;;;;;;;18.70;61.40;;;;;;5053362;28;19912;-57
2021/10/28 00:41:14;;;;;;;;;;;18.70;61.30;;;;;;5054864;28;19916;-53
2021/10/28 00:43:45;;;;;;;;;;;18.70;61.30;;;;;;5047267;28;19966;-52
2021/10/28 00:46:11;;;;;;;;;;;18.70;61.30;;;;;;5051944;28;19913;-51
2021/10/28 00:48:37;;;;;;;;;;;18.70;61.30;;;;;;5055133;28;20357;-54
2021/10/28 00:51:02;;;;;;;;;;;18.70;61.30;;;;;;5059181;28;20297;-56
2021/10/28 00:53:28;;;;;;;;;;;18.70;61.30;;;;;;5048751;28;19960;-60
2021/10/28 00:55:54;;;;;;;;;;;18.70;61.20;;;;;;5051501;28;19934;-59
2021/10/28 00:58:22;;;;;;;;;;;18.70;61.20;;;;;;5043142;28;20329;-60
2021/10/28 01:00:48;;;;;;;;;;;18.70;61.20;;;;;;5052553;28;20297;-60
2021/10/28 01:03:14;;;;;;;;;;;18.70;61.20;;;;;;5046343;28;19913;-58
2021/10/28 01:05:39;;;;;;;;;;;18.70;61.20;;;;;;5060409;28;19920;-53
2021/10/28 01:08:04;;;;;;;;;;;18.70;61.20;;;;;;5044100;28;19912;-58
2021/10/28 01:10:30;;;;;;;;;;;18.70;61.10;;;;;;5052182;28;20413;-54
2021/10/28 01:12:56;;;;;;;;;;;18.70;61.10;;;;;;5051384;28;19942;-60
2021/10/28 01:15:21;;;;;;;;;;;18.70;61.00;;;;;;5062707;28;19927;-53
2021/10/28 01:17:47;;;;;;;;;;;18.70;61.00;;;;;;5048903;28;20283;-54
2021/10/28 01:20:13;;;;;;;;;;;18.70;61.00;;;;;;5054467;28;19920;-53
2021/10/28 01:22:43;;;;;;;;;;;18.70;60.90;;;;;;5062888;28;19913;-55
2021/10/28 01:25:09;;;;;;;;;;;18.70;61.00;;;;;;5058182;28;20464;-53
2021/10/28 01:27:34;;;;;;;;;;;18.70;60.90;;;;;;5053484;28;20015;-55
2021/10/28 01:29:59;;;;;;;;;;;18.70;60.80;;;;;;5061124;28;19912;-56
2021/10/28 01:32:25;;;;;;;;;;;18.70;60.90;;;;;;5051424;28;19929;-55
2021/10/28 01:34:50;;;;;;;;;;;18.70;60.80;;;;;;5055386;28;19913;-56
2021/10/28 01:37:16;;;;;;;;;;;18.70;60.80;;;;;;5051986;28;19931;-55
2021/10/28 01:39:41;;;;;;;;;;;18.70;60.70;;;;;;5062815;28;19916;-50
2021/10/28 01:42:10;;;;;;;;;;;18.60;60.70;;;;;;5052150;28;19920;-54
2021/10/28 01:44:36;;;;;;;;;;;18.70;60.80;;;;;;5042700;28;19962;-52
2021/10/28 01:47:02;;;;;;;;;;;18.70;60.80;;;;;;5051345;28;20003;-54
2021/10/28 01:49:28;;;;;;;;;;;18.70;60.70;;;;;;5046399;28;19919;-54
2021/10/28 01:51:54;;;;;;;;;;;18.70;60.70;;;;;;5041189;28;19920;-59
2021/10/28 01:54:21;;;;;;;;;;;18.70;60.60;;;;;;5045038;28;19924;-54
2021/10/28 01:56:47;;;;;;;;;;;18.70;60.60;;;;;;5044104;28;19923;-56
2021/10/28 01:59:12;;;;;;;;;;;18.70;60.60;;;;;;5054808;28;19916;-52
2021/10/28 02:01:38;;;;;;;;;;;18.60;60.60;;;;;;5054849;28;20445;-54
2021/10/28 02:04:03;;;;;;;;;;;18.60;60.60;;;;;;5044145;28;19956;-61
2021/10/28 02:06:29;;;;;;;;;;;18.70;60.60;;;;;;5045605;28;19924;-52
2021/10/28 02:08:54;;;;;;;;;;;18.70;60.60;;;;;;5050181;28;19959;-51
2021/10/28 02:11:20;;;;;;;;;;;18.70;60.60;;;;;;5042550;28;19913;-53
2021/10/28 02:13:46;;;;;;;;;;;18.60;60.50;;;;;;5049964;28;19962;-59
2021/10/28 02:16:11;;;;;;;;;;;18.60;60.50;;;;;;5044987;28;19959;-52
2021/10/28 02:18:37;;;;;;;;;;;18.60;60.50;;;;;;5049416;28;19917;-51
2021/10/28 02:21:02;;;;;;;;;;;18.60;60.60;;;;;;5049127;28;20312;-56
2021/10/28 02:23:28;;;;;;;;;;;18.60;60.50;;;;;;5062444;28;19921;-60
2021/10/28 02:25:53;;;;;;;;;;;18.60;60.50;;;;;;5053974;28;19916;-56
2021/10/28 02:28:18;;;;;;;;;;;18.60;60.50;;;;;;5061532;28;19913;-57
2021/10/28 02:30:44;;;;;;;;;;;18.60;60.50;;;;;;5057990;28;19913;-59
2021/10/28 02:33:09;;;;;;;;;;;18.60;60.40;;;;;;5059821;28;19917;-53
2021/10/28 02:35:35;;;;;;;;;;;18.60;60.40;;;;;;5064213;28;20019;-60
2021/10/28 02:38:00;;;;;;;;;;;18.60;60.50;;;;;;5059998;28;20362;-54
2021/10/28 02:40:28;;;;;;;;;;;18.60;60.40;;;;;;5055000;28;19941;-56
2021/10/28 02:42:53;;;;;;;;;;;18.60;60.40;;;;;;5068528;28;19916;-58
2021/10/28 02:45:19;;;;;;;;;;;18.60;60.40;;;;;;5057232;28;20432;-51
2021/10/28 02:47:44;;;;;;;;;;;18.60;60.40;;;;;;5056134;28;19913;-52
2021/10/28 02:50:10;;;;;;;;;;;18.60;60.40;;;;;;5052329;28;19913;-60
2021/10/28 02:52:35;;;;;;;;;;;18.60;60.40;;;;;;5063938;28;19912;-54
2021/10/28 02:55:01;;;;;;;;;;;18.60;60.40;;;;;;5051598;28;19959;-58
2021/10/28 02:57:26;;;;;;;;;;;18.60;60.40;;;;;;5047518;28;19917;-53
2021/10/28 02:59:52;;;;;;;;;;;18.60;60.40;;;;;;5052858;28;20592;-53
2021/10/28 03:02:17;;;;;;;;;;;18.60;60.30;;;;;;5068239;28;19966;-50
2021/10/28 03:04:43;;;;;;;;;;;18.50;60.30;;;;;;5064855;28;19912;-56
2021/10/28 03:07:08;;;;;;;;;;;18.60;60.40;;;;;;5066022;28;20718;-55
2021/10/28 03:09:34;;;;;;;;;;;18.50;60.30;;;;;;5059517;28;22048;-49
2021/10/28 03:12:01;;;;;;;;;;;18.50;60.30;;;;;;5064477;28;19947;-55
2021/10/28 03:14:42;;;;;;;;;;;18.60;60.30;;;;;;5052734;28;19935;-54
2021/10/28 03:27:51;;;;;;;;;;;18.50;60.20;;;;;;5056702;28;19989;-59
2021/10/28 03:30:17;;;;;;;;;;;18.50;60.20;;;;;;5061987;28;19916;-58
2021/10/28 03:32:42;;;;;;;;;;;18.50;60.20;;;;;;5063806;28;19927;-55
2021/10/28 03:35:10;;;;;;;;;;;18.50;60.20;;;;;;5053765;28;19913;-57
2021/10/28 03:37:48;;;;;;;;;;;18.50;60.10;;;;;;5039787;28;20436;-56
2021/10/28 03:46:18;;;;;;;;;;;18.50;60.10;;;;;;5033819;28;20325;-60
2021/10/28 03:57:06;;;;;;;;;;;18.50;60.00;;;;;;5039644;28;19943;-59
2021/10/28 04:03:02;;;;;;;;;;;18.50;60.10;;;;;;5037084;28;19988;-59
2021/10/28 04:18:53;;;;;;;;;;;18.40;60.00;;;;;;5044973;28;20665;-59
2021/10/28 04:29:31;;;;;;;;;;;18.40;60.10;;;;;;5028367;28;19928;-52
2021/10/28 04:31:56;;;;;;;;;;;18.40;60.10;;;;;;5038517;28;19913;-50
2021/10/28 04:34:22;;;;;;;;;;;18.40;60.10;;;;;;5035652;28;19913;-52
2021/10/28 04:36:47;;;;;;;;;;;18.40;60.10;;;;;;5043160;28;19917;-59
2021/10/28 04:39:13;;;;;;;;;;;18.40;60.20;;;;;;5028070;28;20530;-53
2021/10/28 04:41:38;;;;;;;;;;;18.40;60.10;;;;;;5032921;28;19913;-52
2021/10/28 04:44:07;;;;;;;;;;;18.40;60.00;;;;;;5031895;28;20012;-58
2021/10/28 04:46:33;;;;;;;;;;;18.40;60.00;;;;;;5034941;28;19956;-51
2021/10/28 04:48:58;;;;;;;;;;;18.40;60.20;;;;;;5039776;28;20003;-58
2021/10/28 04:51:23;;;;;;;;;;;18.40;60.40;;;;;;5037095;28;19919;-58
2021/10/28 04:53:49;;;;;;;;;;;18.40;60.50;;;;;;5033706;28;19952;-63
2021/10/28 04:56:14;;;;;;;;;;;18.40;60.50;;;;;;5034670;28;19925;-52
2021/10/28 04:58:40;;;;;;;;;;;18.40;60.50;;;;;;5040402;28;19959;-58
2021/10/28 05:01:05;;;;;;;;;;;18.30;60.50;;;;;;5032604;28;20887;-52
2021/10/28 05:03:31;;;;;;;;;;;18.40;60.50;;;;;;5027422;28;19938;-53
2021/10/28 05:05:56;;;;;;;;;;;18.40;60.40;;;;;;5027375;28;19945;-56
2021/10/28 05:08:22;;;;;;;;;;;18.40;60.30;;;;;;5027991;28;19923;-51
2021/10/28 05:10:47;;;;;;;;;;;18.30;60.20;;;;;;5032452;28;19913;-51
2021/10/28 05:13:14;;;;;;;;;;;18.40;60.10;;;;;;5030780;28;19917;-58
2021/10/28 05:15:49;;;;;;;;;;;18.40;60.10;;;;;;5035069;28;20366;-56
2021/10/28 05:18:15;;;;;;;;;;;18.40;60.10;;;;;;5039300;28;20378;-60
2021/10/28 05:20:40;;;;;;;;;;;18.30;61.20;;;;;;5039106;28;19916;-52
2021/10/28 05:23:06;;;;;;;;;;;18.30;61.80;;;;;;5022454;28;20582;-49
2021/10/28 05:25:31;;;;;;;;;;;18.30;61.80;;;;;;5030629;28;19913;-55
2021/10/28 05:27:57;;;;;;;;;;;18.30;61.80;;;;;;5031072;28;19913;-59
2021/10/28 05:30:22;;;;;;;;;;;18.30;62.00;;;;;;5027070;28;19917;-52
2021/10/28 05:32:48;;;;;;;;;;;18.30;61.90;;;;;;5023197;28;19913;-57
2021/10/28 05:35:13;;;;;;;;;;;18.40;61.90;;;;;;5026885;28;19917;-57
2021/10/28 05:37:39;;;;;;;;;;;18.30;61.70;;;;;;5042885;28;19956;-59
2021/10/28 05:40:04;;;;;;;;;;;18.30;61.70;;;;;;5030228;28;19947;-56
2021/10/28 05:42:30;;;;;;;;;;;18.30;61.80;;;;;;5029374;28;19925;-50
2021/10/28 05:44:56;;;;;;;;;;;18.30;61.70;;;;;;5037595;28;19991;-57
2021/10/28 05:47:22;;;;;;;;;;;18.40;61.40;;;;;;5035486;28;19913;-52
2021/10/28 05:49:47;;;;;;;;;;;18.40;61.20;;;;;;5037666;28;20134;-50
2021/10/28 05:52:13;;;;;;;;;;;18.40;61.10;;;;;;5036209;28;20016;-55
2021/10/28 05:54:38;;;;;;;;;;;18.40;61.00;;;;;;5030051;28;19967;-52
2021/10/28 05:57:04;;;;;;;;;;;18.40;61.00;;;;;;5030262;28;20580;-53
2021/10/28 05:59:29;;;;;;;;;;;18.40;60.90;;;;;;5026182;28;19921;-51
2021/10/28 06:01:55;;;;;;;;;;;18.40;60.90;;;;;;5028212;28;19913;-58
2021/10/28 06:04:20;;;;;;;;;;;18.40;60.80;;;;;;5028544;28;19936;-53
2021/10/28 06:06:46;;;;;;;;;;;18.40;60.80;;;;;;5038544;28;19928;-52
2021/10/28 06:09:11;;;;;;;;;;;18.40;60.80;;;;;;5037959;28;19912;-57
2021/10/28 06:11:37;;;;;;;;;;;18.40;61.40;;;;;;5035421;28;19913;-61
2021/10/28 06:14:03;;;;;;;;;;;18.40;60.70;;;;;;5029938;28;19924;-55
2021/10/28 06:16:29;;;;;;;;;;;18.40;60.70;;;;;;5031893;28;20304;-56
2021/10/28 06:18:54;;;;;;;;;;;18.40;60.90;;;;;;5030910;28;19913;-57
2021/10/28 06:21:24;;;;;;;;;;;18.40;61.20;;;;;;5057113;28;19913;-51
2021/10/28 06:23:50;;;;;;;;;;;18.40;61.30;;;;;;5062191;28;19970;-61
2021/10/28 06:26:18;;;;;;;;;;;18.30;61.50;;;;;;5047336;28;20372;-51
2021/10/28 06:28:43;;;;;;;;;;;18.30;61.30;;;;;;5039005;28;19971;-52
2021/10/28 06:31:09;;;;;;;;;;;18.40;61.40;;;;;;5035305;28;19917;-57
2021/10/28 06:33:36;;;;;;;;;;;18.40;61.30;;;;;;5022495;28;20345;-53
2021/10/28 06:36:03;;;;;;;;;;;18.40;60.60;;;;;;5027343;28;19917;-54
2021/10/28 06:38:32;;;;;;;;;;;18.40;60.00;;;;;;5035085;28;19935;-56
2021/10/28 06:40:57;;;;;;;;;;;18.40;59.30;;;;;;5029460;28;19919;-56
2021/10/28 06:43:23;;;;;;;;;;;18.40;58.80;;;;;;5026273;28;19920;-50
2021/10/28 06:45:48;;;;;;;;;;;18.40;58.20;;;;;;5033460;28;19920;-53
2021/10/28 06:48:14;;;;;;;;;;;18.40;57.80;;;;;;5026404;28;19922;-56
2021/10/28 06:50:53;;;;;;;;;;;18.40;57.40;;;;;;5027754;28;19920;-60
2021/10/28 06:56:00;;;;;;;;;;;18.40;56.60;;;;;;5029389;28;20012;-53
2021/10/28 07:03:54;;;;;;;;;;;18.40;55.30;;;;;;5024598;28;20409;-54
2021/10/28 07:06:21;;;;;;;;;;;18.40;55.10;;;;;;5026870;28;19917;-50
2021/10/28 07:08:51;;;;;;;;;;;18.30;54.90;;;;;;5034722;28;19913;-55
2021/10/28 07:11:23;;;;;;;;;;;18.30;54.90;;;;;;5033072;28;20381;-60
2021/10/28 07:13:50;;;;;;;;;;;18.20;55.50;;;;;;5016206;28;19921;-57
2021/10/28 07:21:48;;;;;;;;;;;18.30;55.50;;;;;;5036899;28;19913;-57
2021/10/28 07:32:21;;;;;;;;;;;18.20;55.90;;;;;;5032072;28;19944;-52
2021/10/28 07:34:59;;;;;;;;;;;18.20;56.10;;;;;;5031528;28;19986;-52
2021/10/28 07:38:23;;;;;;;;;;;18.20;56.20;;;;;;5039637;28;19924;-55
2021/10/28 08:17:58;;;;;;;;;;;18.10;57.50;;;;;;5035300;28;20371;-59
2021/10/28 08:23:28;;;;;;;;;;;18.20;57.70;;;;;;5027331;28;19921;-56
2021/10/28 08:28:51;;;;;;;;;;;18.10;57.90;;;;;;5045223;28;19921;-58
2021/10/28 08:31:17;;;;;;;;;;;18.10;58.00;;;;;;5039289;28;19929;-53
2021/10/28 08:33:42;;;;;;;;;;;18.10;58.20;;;;;;5033670;28;19913;-50
2021/10/28 08:36:09;;;;;;;;;;;18.10;58.30;;;;;;5035831;28;20485;-59
2021/10/28 08:38:35;;;;;;;;;;;18.10;58.40;;;;;;5038901;28;20007;-56
2021/10/28 08:41:02;;;;;;;;;;;18.00;58.40;;;;;;5032831;28;20105;-51
2021/10/28 08:43:29;;;;;;;;;;;18.10;58.60;;;;;;5040458;28;19913;-57
2021/10/28 08:45:55;;;;;;;;;;;18.00;58.60;;;;;;5033038;28;19913;-56
2021/10/28 08:48:22;;;;;;;;;;;18.10;58.70;;;;;;5050559;28;19994;-54
2021/10/28 08:50:52;;;;;;;;;;;18.10;58.50;;;;;;5027504;28;19975;-49
2021/10/28 08:53:26;;;;;;;;;;;18.20;58.20;;;;;;5018739;28;20382;-54
2021/10/28 08:56:00;;;;;;;;;;;18.30;58.10;;;;;;5022569;28;20502;-49
2021/10/28 09:25:40;;;;;;;;;;;18.40;58.00;;;;;;5034541;28;19935;-54
2021/10/28 09:28:35;;;;;;;;;;;18.40;58.00;;;;;;5037887;28;19920;-55
2021/10/28 09:31:11;;;;;;;;;;;18.40;58.00;;;;;;5011664;28;19921;-59
2021/10/28 09:34:08;;;;;;;;;;;18.50;58.00;;;;;;5015873;28;19913;-54
2021/10/28 09:44:43;;;;;;;;;;;18.60;57.70;;;;;;5022655;28;19920;-59
2021/10/28 09:47:31;;;;;;;;;;;18.60;57.70;;;;;;5032192;28;19919;-58
2021/10/28 09:50:00;;;;;;;;;;;18.60;57.70;;;;;;5041833;28;20456;-60
2021/10/28 09:52:30;;;;;;;;;;;18.60;57.70;;;;;;5038270;28;19944;-56
2021/10/28 09:57:36;;;;;;;;;;;18.60;57.70;;;;;;5032427;28;19963;-54
2021/10/28 09:57:51;;;;;;;;;;;18.60;57.70;;;;;;5036748;28;20213;-58
2021/10/28 10:00:18;;;;;;;;;;;18.60;57.70;;;;;;5030727;28;20004;-56
2021/10/28 10:03:30;;;;;;;;;;;18.70;57.70;;;;;;5030106;28;19913;-51
2021/10/28 10:05:29;;;;;;;;;;;18.60;57.70;;;;;;5019221;28;19920;-56
2021/10/28 10:07:55;;;;;;;;;;;18.70;57.70;;;;;;5035081;28;19913;-59
2021/10/28 10:10:21;;;;;;;;;;;18.70;57.70;;;;;;5037917;28;19913;-60
2021/10/28 10:12:47;;;;;;;;;;;18.70;57.80;;;;;;5024760;28;19921;-55
2021/10/28 10:15:13;;;;;;;;;;;18.70;57.80;;;;;;5070029;22;19933;-55
2021/10/28 10:17:38;;;;;;;;;;;18.70;57.70;;;;;;5057835;28;19920;-53
2021/10/28 10:20:11;;;;;;;;;;;18.70;57.80;;;;;;5061176;28;19916;-55
2021/10/28 10:22:47;;;;;;;;;;;18.70;57.80;;;;;;5035352;28;19966;-54
2021/10/28 10:25:31;;;;;;;;;;;18.70;57.80;;;;;;5053362;28;20363;-55
2021/10/28 10:28:40;;;;;;;;;;;18.70;57.90;;;;;;5041082;28;20289;-53
2021/10/28 11:05:34;;;;;;;;;;;18.50;58.50;;;;;;5037749;28;19927;-56
2021/10/28 11:20:08;;;;;;;;;;;18.40;58.90;;;;;;5028703;28;20012;-54
2021/10/28 11:22:43;;;;;;;;;;;18.30;59.00;;;;;;5044083;28;20619;-56
2021/10/28 12:25:40;;;;;;;;;;;18.10;60.10;;;;;;5042128;28;19920;-56
2021/10/28 12:44:44;;;;;;;;;;;18.10;60.20;;;;;;5043560;28;19923;-54
2021/10/28 12:48:05;;;;;;;;;;;18.10;60.30;;;;;;5042380;28;20310;-57
2021/10/28 13:48:12;;;;;;;;;;;18.10;61.00;;;;;;5041812;28;19970;-54
2021/10/28 13:51:48;;;;;;;;;;;18.10;61.00;;;;;;5042379;28;19916;-56
2021/10/28 15:34:00;;;;;;;;;;;18.30;61.00;;;;;;5043798;28;19962;-56
2021/10/28 15:36:28;;;;;;;;;;;18.30;60.90;;;;;;5036117;28;19917;-58
2021/10/28 15:39:02;;;;;;;;;;;18.30;61.00;;;;;;5032219;28;19999;-57
2021/10/28 15:41:44;;;;;;;;;;;18.30;61.00;;;;;;5053844;28;20189;-59
2021/10/28 16:22:13;;;;;;;;;;;18.30;61.00;;;;;;5041080;28;20626;-61
2021/10/28 16:24:39;;;;;;;;;;;18.30;61.00;;;;;;5019007;28;19917;-58
2021/10/28 16:27:04;;;;;;;;;;;18.30;61.00;;;;;;5036222;28;20629;-61
2021/10/28 16:29:30;;;;;;;;;;;18.30;61.00;;;;;;5027309;28;19962;-58
2021/10/28 16:31:55;;;;;;;;;;;18.30;61.00;;;;;;5021570;28;20000;-59
2021/10/28 16:34:21;;;;;;;;;;;18.30;61.00;;;;;;5037605;28;20560;-53
2021/10/28 16:36:47;;;;;;;;;;;18.30;61.00;;;;;;5037148;28;19921;-63
2021/10/28 16:39:13;;;;;;;;;;;18.30;61.00;;;;;;5032506;28;19917;-58
2021/10/28 16:41:43;;;;;;;;;;;18.30;61.00;;;;;;5037046;28;19924;-56
2021/10/28 16:44:08;;;;;;;;;;;18.30;61.00;;;;;;5037710;28;19978;-58
2021/10/28 16:46:34;;;;;;;;;;;18.30;61.00;;;;;;5045848;28;20590;-53
2021/10/28 16:49:00;;;;;;;;;;;18.30;61.00;;;;;;5032138;28;19913;-57
2021/10/28 16:51:25;;;;;;;;;;;18.30;61.00;;;;;;5038551;28;19912;-60
2021/10/28 16:53:51;;;;;;;;;;;18.30;61.00;;;;;;5039467;28;19968;-58
2021/10/28 16:56:17;;;;;;;;;;;18.30;61.00;;;;;;5042206;28;20584;-59
2021/10/28 16:58:42;;;;;;;;;;;18.30;61.00;;;;;;5024550;28;19913;-54
2021/10/28 17:01:08;;;;;;;;;;;18.30;61.00;;;;;;5029384;28;19912;-54
2021/10/28 17:03:34;;;;;;;;;;;18.30;61.00;;;;;;5042237;28;19917;-57
2021/10/28 17:05:59;;;;;;;;;;;18.30;60.90;;;;;;5040725;28;19959;-55
2021/10/28 17:08:25;;;;;;;;;;;18.30;61.00;;;;;;5033219;28;20300;-54
2021/10/28 17:10:50;;;;;;;;;;;18.30;60.90;;;;;;5032635;28;19927;-52
2021/10/28 17:13:16;;;;;;;;;;;18.30;60.90;;;;;;5027388;28;19917;-55
2021/10/28 17:15:41;;;;;;;;;;;18.30;61.50;;;;;;5032566;28;19920;-60
2021/10/28 17:18:07;;;;;;;;;;;18.30;60.90;;;;;;5036315;28;19990;-56
2021/10/28 17:20:36;;;;;;;;;;;18.30;60.90;;;;;;5024608;28;19991;-58
2021/10/28 17:23:02;;;;;;;;;;;18.30;60.90;;;;;;5049443;28;19912;-59
2021/10/28 17:25:29;;;;;;;;;;;18.30;60.90;;;;;;5030802;28;19927;-51
2021/10/28 17:27:54;;;;;;;;;;;18.30;60.90;;;;;;5044991;28;19939;-54
2021/10/28 17:30:21;;;;;;;;;;;18.30;60.90;;;;;;5024047;28;19955;-55
2021/10/28 17:32:47;;;;;;;;;;;18.30;61.00;;;;;;5043433;28;20406;-51
2021/10/28 17:35:13;;;;;;;;;;;18.30;61.00;;;;;;5034988;28;20398;-54
2021/10/28 17:37:39;;;;;;;;;;;18.30;60.90;;;;;;5041549;28;20381;-53
2021/10/28 17:40:06;;;;;;;;;;;18.30;61.00;;;;;;5016714;28;19916;-53
2021/10/28 17:42:33;;;;;;;;;;;18.30;60.90;;;;;;5050204;28;19974;-54
2021/10/28 17:45:00;;;;;;;;;;;18.30;60.90;;;;;;5029390;28;19945;-54
2021/10/28 17:47:26;;;;;;;;;;;18.30;61.00;;;;;;5012363;28;19974;-51
2021/10/28 17:49:51;;;;;;;;;;;18.30;60.90;;;;;;5019189;28;20354;-56
2021/10/28 17:52:18;;;;;;;;;;;18.20;60.90;;;;;;5046465;28;19913;-56
2021/10/28 17:54:43;;;;;;;;;;;18.30;61.00;;;;;;5019178;28;19996;-59
2021/10/28 17:57:09;;;;;;;;;;;18.30;61.00;;;;;;5047576;28;20032;-59
2021/10/28 17:59:34;;;;;;;;;;;18.30;60.90;;;;;;5030184;28;19921;-58
2021/10/28 18:02:00;;;;;;;;;;;18.30;61.00;;;;;;5057353;28;19923;-51
2021/10/28 18:04:25;;;;;;;;;;;18.30;61.00;;;;;;5011175;28;19914;-54
2021/10/28 18:06:51;;;;;;;;;;;18.30;61.00;;;;;;5041122;28;19912;-53
2021/10/28 18:09:17;;;;;;;;;;;18.30;61.00;;;;;;5031201;28;19917;-52
2021/10/28 18:11:43;;;;;;;;;;;18.30;61.00;;;;;;5034976;28;19912;-55
2021/10/28 18:14:12;;;;;;;;;;;18.30;61.00;;;;;;5023094;28;19932;-54
2021/10/28 18:16:39;;;;;;;;;;;18.30;61.00;;;;;;5027812;28;19928;-55
2021/10/28 18:19:05;;;;;;;;;;;18.30;61.00;;;;;;5034833;28;19921;-52
2021/10/28 18:21:30;;;;;;;;;;;18.30;61.00;;;;;;5002851;28;20294;-55
2021/10/28 18:23:57;;;;;;;;;;;18.30;61.00;;;;;;5021667;28;19936;-55
2021/10/28 18:26:25;;;;;;;;;;;18.30;61.00;;;;;;5039766;28;19975;-57
2021/10/28 18:28:51;;;;;;;;;;;18.30;61.00;;;;;;5041356;28;20362;-57
2021/10/28 18:31:17;;;;;;;;;;;18.30;61.00;;;;;;5030395;28;19930;-58
2021/10/28 18:33:43;;;;;;;;;;;18.30;60.90;;;;;;5028122;28;19967;-55
2021/10/28 18:36:12;;;;;;;;;;;18.30;60.90;;;;;;5018537;28;20294;-54
2021/10/28 18:38:37;;;;;;;;;;;18.30;60.90;;;;;;5037537;28;19913;-54
2021/10/28 18:41:03;;;;;;;;;;;18.30;60.90;;;;;;5022249;28;20003;-56
2021/10/28 18:43:29;;;;;;;;;;;18.30;60.90;;;;;;5037508;28;20472;-55
2021/10/28 18:45:55;;;;;;;;;;;18.40;60.90;;;;;;5024976;28;20299;-58
2021/10/28 18:48:22;;;;;;;;;;;18.30;60.70;;;;;;5039858;28;19912;-58
2021/10/28 18:50:48;;;;;;;;;;;18.30;60.70;;;;;;5027767;28;20445;-56
2021/10/28 18:53:13;;;;;;;;;;;18.30;60.80;;;;;;5036665;28;19917;-52
2021/10/28 18:55:39;;;;;;;;;;;18.30;60.90;;;;;;5031685;28;19913;-56
2021/10/28 18:58:05;;;;;;;;;;;18.30;61.10;;;;;;5034633;28;19967;-57
2021/10/28 19:00:31;;;;;;;;;;;18.30;61.00;;;;;;5028784;28;20336;-57
2021/10/28 19:02:57;;;;;;;;;;;18.40;60.90;;;;;;5033262;28;19913;-56
2021/10/28 19:05:23;;;;;;;;;;;18.30;60.90;;;;;;5026715;28;20542;-58
2021/10/28 19:07:48;;;;;;;;;;;18.30;60.80;;;;;;5025928;28;20004;-64
2021/10/28 19:10:13;;;;;;;;;;;18.30;60.80;;;;;;5030571;28;20560;-56
2021/10/28 19:12:42;;;;;;;;;;;18.30;60.70;;;;;;5025332;28;19923;-59
2021/10/28 19:15:09;;;;;;;;;;;18.30;60.70;;;;;;5020194;28;20321;-55
2021/10/28 19:17:34;;;;;;;;;;;18.30;60.80;;;;;;5028204;28;19921;-56
2021/10/28 19:20:00;;;;;;;;;;;18.30;61.30;;;;;;5031486;28;19913;-61
2021/10/28 19:22:30;;;;;;;;;;;18.30;61.90;;;;;;5024904;28;19913;-53
2021/10/28 19:24:57;;;;;;;;;;;18.30;62.50;;;;;;5023350;28;20028;-53
2021/10/28 19:27:23;;;;;;;;;;;18.30;62.70;;;;;;5029496;28;19917;-54
2021/10/28 19:29:53;;;;;;;;;;;18.30;63.00;;;;;;5026964;28;19913;-49
2021/10/28 19:32:22;;;;;;;;;;;18.30;63.20;;;;;;5049228;28;20003;-52
2021/10/28 19:34:48;;;;;;;;;;;18.30;63.40;;;;;;5029387;28;19956;-58
2021/10/28 19:37:18;;;;;;;;;;;18.40;64.20;;;;;;5046471;28;20311;-52
2021/10/28 19:40:08;;;;;;;;;;;18.40;64.00;;;;;;5027000;28;20370;-58
2021/10/28 19:45:06;;;;;;;;;;;18.40;64.10;;;;;;5034097;28;20013;-59
2021/10/28 19:48:06;;;;;;;;;;;18.40;64.10;;;;;;5033066;28;19936;-58
2021/10/28 19:50:32;;;;;;;;;;;18.40;64.00;;;;;;5034000;28;19913;-52
2021/10/28 19:52:57;;;;;;;;;;;18.40;64.00;;;;;;5038966;28;19917;-55
2021/10/28 19:55:23;;;;;;;;;;;18.40;64.10;;;;;;5042969;28;19928;-58
2021/10/28 19:57:51;;;;;;;;;;;18.40;64.20;;;;;;5025055;28;20431;-58
2021/10/28 20:00:24;;;;;;;;;;;18.40;64.20;;;;;;5044224;28;19917;-56
2021/10/28 20:08:05;;;;;;;;;;;18.40;63.90;;;;;;5039992;28;19924;-57
2021/10/28 20:21:23;;;;;;;;;;;18.50;64.10;;;;;;5038061;28;19993;-56
2021/10/28 20:23:50;;;;;;;;;;;18.50;64.10;;;;;;5031781;28;20008;-54
2021/10/28 20:26:16;;;;;;;;;;;18.50;64.00;;;;;;5038806;28;19917;-55
2021/10/28 20:28:43;;;;;;;;;;;18.50;63.80;;;;;;5029983;28;19959;-56
2021/10/28 20:31:08;;;;;;;;;;;18.60;63.80;;;;;;5038979;28;20327;-55
2021/10/28 20:33:38;;;;;;;;;;;18.60;63.50;;;;;;5033431;28;19999;-57
2021/10/28 20:38:29;;;;;;;;;;;18.50;62.90;;;;;;5029224;28;19930;-58
2021/10/28 20:40:54;;;;;;;;;;;18.60;62.90;;;;;;5032244;28;20100;-58
2021/10/28 20:43:20;;;;;;;;;;;18.60;62.70;;;;;;5027818;28;19913;-55
2021/10/28 20:45:46;;;;;;;;;;;18.60;62.70;;;;;;5029978;28;19913;-61
2021/10/28 20:48:11;;;;;;;;;;;18.60;62.60;;;;;;5033125;28;20426;-50
2021/10/28 20:50:37;;;;;;;;;;;18.60;62.50;;;;;;5035128;28;20000;-52
2021/10/28 20:53:02;;;;;;;;;;;18.60;62.40;;;;;;5005716;28;19917;-53
2021/10/28 20:55:28;;;;;;;;;;;18.60;62.30;;;;;;5030748;28;19912;-53
2021/10/28 20:57:54;;;;;;;;;;;18.60;62.20;;;;;;5036896;28;20838;-53
2021/10/28 21:00:20;;;;;;;;;;;18.60;62.10;;;;;;5024953;28;19924;-51
2021/10/28 21:02:46;;;;;;;;;;;18.60;62.00;;;;;;5031587;28;20386;-52
2021/10/28 21:05:13;;;;;;;;;;;18.60;61.90;;;;;;5039262;28;19944;-52
2021/10/28 21:07:38;;;;;;;;;;;18.60;61.90;;;;;;5033852;28;20004;-56
2021/10/28 21:10:04;;;;;;;;;;;18.60;61.90;;;;;;5014620;28;20430;-60
2021/10/28 21:12:30;;;;;;;;;;;18.60;61.80;;;;;;5029268;28;19913;-50
2021/10/28 21:14:55;;;;;;;;;;;18.60;61.70;;;;;;5037471;28;20558;-55
2021/10/28 21:17:21;;;;;;;;;;;18.60;61.70;;;;;;5028678;28;19924;-56
2021/10/28 21:19:46;;;;;;;;;;;18.60;61.60;;;;;;5034589;28;19913;-57
2021/10/28 21:22:14;;;;;;;;;;;18.70;61.50;;;;;;5040013;28;19917;-57
2021/10/28 21:24:42;;;;;;;;;;;18.60;61.40;;;;;;5016639;28;19917;-56
2021/10/28 21:27:08;;;;;;;;;;;18.70;61.40;;;;;;5038054;28;19920;-57
2021/10/28 21:29:33;;;;;;;;;;;18.70;61.20;;;;;;5033412;28;19913;-55
2021/10/28 21:31:59;;;;;;;;;;;18.70;61.20;;;;;;5024338;28;19913;-60
2021/10/28 21:34:24;;;;;;;;;;;18.70;61.10;;;;;;5035302;28;19919;-61
2021/10/28 21:36:49;;;;;;;;;;;18.70;61.10;;;;;;5039757;28;19924;-58
2021/10/28 21:39:15;;;;;;;;;;;18.70;61.00;;;;;;5041979;28;19917;-59
2021/10/28 21:41:40;;;;;;;;;;;18.70;61.00;;;;;;5024074;28;19928;-57
2021/10/28 21:44:06;;;;;;;;;;;18.70;60.90;;;;;;5034349;28;19963;-55
2021/10/28 21:46:35;;;;;;;;;;;18.70;60.80;;;;;;5024523;28;20013;-51
2021/10/28 21:49:00;;;;;;;;;;;18.70;60.80;;;;;;5036674;28;19928;-53
2021/10/28 21:51:27;;;;;;;;;;;18.70;60.70;;;;;;5026492;28;19913;-51
2021/10/28 21:53:54;;;;;;;;;;;18.70;60.70;;;;;;5034510;28;19921;-54
2021/10/28 21:56:29;;;;;;;;;;;18.70;60.70;;;;;;5028259;28;19916;-58
2021/10/28 22:01:49;;;;;;;;;;;18.70;60.60;;;;;;5023868;28;19928;-52
2021/10/28 22:04:37;;;;;;;;;;;18.70;60.60;;;;;;5040525;28;19928;-56
2021/10/28 22:25:58;;;;;;;;;;;18.70;60.20;;;;;;5018053;28;19959;-55
2021/10/28 22:28:23;;;;;;;;;;;18.70;60.20;;;;;;5018311;28;19913;-56
2021/10/28 22:30:49;;;;;;;;;;;18.70;60.10;;;;;;5016704;28;19917;-53
2021/10/28 22:33:15;;;;;;;;;;;18.70;60.00;;;;;;5023322;28;19913;-51
2021/10/28 22:35:46;;;;;;;;;;;18.70;60.00;;;;;;5023595;28;20425;-58
2021/10/28 22:38:11;;;;;;;;;;;18.70;60.00;;;;;;5026079;28;20431;-56
2021/10/28 22:40:40;;;;;;;;;;;18.70;60.00;;;;;;5028226;28;19920;-55
2021/10/28 22:43:10;;;;;;;;;;;18.70;60.00;;;;;;5015295;28;20585;-53
2021/10/28 22:45:36;;;;;;;;;;;18.70;60.00;;;;;;5026435;28;20398;-58
2021/10/28 22:48:01;;;;;;;;;;;18.70;60.00;;;;;;5042705;28;19920;-55
2021/10/28 22:50:27;;;;;;;;;;;18.70;60.00;;;;;;5031176;28;19914;-54
2021/10/28 22:52:56;;;;;;;;;;;18.70;60.00;;;;;;5039517;28;19966;-55
2021/10/28 22:55:24;;;;;;;;;;;18.70;60.00;;;;;;5030148;28;19917;-54
2021/10/28 22:58:04;;;;;;;;;;;18.70;59.90;;;;;;5034745;28;20337;-56
2021/10/28 23:03:08;;;;;;;;;;;18.70;59.90;;;;;;5043118;28;19913;-53
2021/10/28 23:11:21;;;;;;;;;;;18.70;59.80;;;;;;5039840;28;19962;-57